createdAt,value
2022-08-05T04:00:32.212Z,23.80
2022-08-05T04:03:04.326Z,23.80
2022-08-05T04:05:36.314Z,24.10
2022-08-05T04:08:29.713Z,23.90
2022-08-05T04:11:02.562Z,24.00
2022-08-05T04:13:49.756Z,24.30
2022-08-05T04:16:25.223Z,24.10
2022-08-05T04:18:54.851Z,24.00
2022-08-05T04:22:09.469Z,24.20
2022-08-05T04:24:19.119Z,23.90
2022-08-05T04:26:50.813Z,24.60
2022-08-05T04:29:19.678Z,24.70
2022-08-05T04:31:49.737Z,25.10
2022-08-05T04:34:33.594Z,25.30
2022-08-05T04:37:03.584Z,25.10
2022-08-05T04:39:32.339Z,25.10
2022-08-05T04:42:03.886Z,25.70
2022-08-05T04:44:32.008Z,25.50
2022-08-05T04:47:09.374Z,25.50
2022-08-05T04:50:02.866Z,25.40
2022-08-05T04:52:28.117Z,25.60
2022-08-05T04:54:57.289Z,25.90
2022-08-05T04:57:28.526Z,25.90
2022-08-05T04:59:58.513Z,26.40
2022-08-05T05:02:37.701Z,26.50
2022-08-05T05:05:26.150Z,26.50
2022-08-05T05:08:02.348Z,27.00
2022-08-05T05:10:33.259Z,27.10
2022-08-05T05:13:03.651Z,27.10
2022-08-05T05:15:59.290Z,27.40
2022-08-05T05:18:31.441Z,27.20
2022-08-05T05:21:03.590Z,27.40
2022-08-05T05:24:03.028Z,27.70
2022-08-05T05:26:28.433Z,27.70
2022-08-05T05:29:02.411Z,27.70
2022-08-05T05:34:01.990Z,28.20
2022-08-05T05:36:31.753Z,28.20
2022-08-05T05:39:00.183Z,28.10
2022-08-05T05:41:40.459Z,28.00
2022-08-05T05:44:35.513Z,28.00
2022-08-05T05:47:04.050Z,27.30
2022-08-05T05:49:34.276Z,27.30
2022-08-05T05:52:05.883Z,27.20
2022-08-05T05:54:49.960Z,27.20
2022-08-05T05:57:20.179Z,27.60
2022-08-05T05:59:49.147Z,27.80
2022-08-05T06:02:32.738Z,27.90
2022-08-05T06:05:10.600Z,27.70
2022-08-05T06:07:57.976Z,27.40
2022-08-05T06:10:36.488Z,27.50
2022-08-05T06:13:06.056Z,27.50
2022-08-05T06:16:28.431Z,27.20
2022-08-05T06:18:31.021Z,27.60
2022-08-05T06:21:01.384Z,27.70
2022-08-05T06:23:32.261Z,27.80
2022-08-05T06:26:21.705Z,27.30
2022-08-05T06:28:53.004Z,27.10
2022-08-05T06:31:21.989Z,26.90
2022-08-05T06:34:07.405Z,26.60
2022-08-05T06:36:56.910Z,26.60
2022-08-05T06:39:27.878Z,26.70
2022-08-05T06:41:58.969Z,26.60
2022-08-05T06:44:27.430Z,27.20
2022-08-05T06:46:55.966Z,27.50
2022-08-05T06:49:59.808Z,27.50
2022-08-05T06:52:36.794Z,27.90
2022-08-05T06:55:02.783Z,28.20
2022-08-05T06:57:58.221Z,28.70
2022-08-05T07:00:24.812Z,29.10
2022-08-05T07:02:54.119Z,29.50
2022-08-05T07:05:36.863Z,29.50
2022-08-05T07:08:10.632Z,29.20
2022-08-05T07:10:52.856Z,28.90
2022-08-05T07:13:58.081Z,29.20
2022-08-05T07:18:01.163Z,29.30
2022-08-05T07:20:23.070Z,29.20
2022-08-05T07:22:29.102Z,29.60
2022-08-05T07:25:23.118Z,29.70
2022-08-05T07:27:58.023Z,29.60
2022-08-05T07:30:33.428Z,29.70
2022-08-05T07:33:05.309Z,29.50
2022-08-05T07:36:02.249Z,29.60
2022-08-05T07:38:33.334Z,29.50
2022-08-05T07:42:07.027Z,29.40
2022-08-05T07:43:56.446Z,29.20
2022-08-05T07:46:26.766Z,29.30
2022-08-05T07:49:02.502Z,29.40
2022-08-05T07:51:36.982Z,29.20
2022-08-05T07:54:09.725Z,29.00
2022-08-05T07:57:01.878Z,28.60
2022-08-05T07:59:38.271Z,29.00
2022-08-05T08:02:10.702Z,29.60
2022-08-05T08:04:45.131Z,29.40
2022-08-05T08:07:16.321Z,29.00
2022-08-05T08:09:46.686Z,29.00
2022-08-05T08:12:35.639Z,28.90
2022-08-05T08:15:09.688Z,28.80
2022-08-05T08:17:46.276Z,28.70
2022-08-05T08:21:00.236Z,28.60
2022-08-05T08:24:03.163Z,28.90
2022-08-05T08:26:02.892Z,29.50
2022-08-05T08:28:42.384Z,29.80
2022-08-05T08:31:22.552Z,29.70
2022-08-05T08:33:51.618Z,30.20
2022-08-05T08:36:38.278Z,30.40
2022-08-05T08:39:15.784Z,29.80
2022-08-05T08:41:51.783Z,29.40
2022-08-05T08:45:21.421Z,29.10
2022-08-05T08:48:05.528Z,29.00
2022-08-05T08:50:31.736Z,28.90
2022-08-05T08:53:08.136Z,29.00
2022-08-05T08:56:03.041Z,29.20
2022-08-05T08:58:43.034Z,28.90
2022-08-05T09:01:16.455Z,29.00
2022-08-05T09:03:47.722Z,29.10
2022-08-05T09:06:21.213Z,29.10
2022-08-05T09:08:52.287Z,28.90
2022-08-05T09:11:52.669Z,28.80
2022-08-05T09:14:57.460Z,28.80
2022-08-05T09:16:59.366Z,29.10
2022-08-05T09:19:36.631Z,29.30
2022-08-05T09:22:30.717Z,29.40
2022-08-05T09:25:00.907Z,29.10
2022-08-05T09:28:04.669Z,28.60
2022-08-05T09:30:23.886Z,28.90
2022-08-05T09:32:53.804Z,29.10
2022-08-05T09:35:27.022Z,29.10
2022-08-05T09:38:12.222Z,29.30
2022-08-05T09:40:53.638Z,29.10
2022-08-05T09:43:40.761Z,29.20
2022-08-05T09:46:27.673Z,28.60
2022-08-05T09:49:08.015Z,28.90
2022-08-05T09:51:48.773Z,28.30
2022-08-05T09:54:28.995Z,29.20
2022-08-05T09:57:01.488Z,28.60
2022-08-05T09:59:35.187Z,28.70
2022-08-05T10:02:06.337Z,28.90
2022-08-05T10:04:41.106Z,28.80
2022-08-05T10:07:19.736Z,28.70
2022-08-05T10:10:04.082Z,28.60
2022-08-05T10:12:50.014Z,28.90
2022-08-05T10:15:52.952Z,29.20
2022-08-05T10:18:23.719Z,29.20
2022-08-05T10:20:56.584Z,29.40
2022-08-05T10:23:55.764Z,29.70
2022-08-05T10:26:15.785Z,29.50
2022-08-05T10:28:47.334Z,29.90
2022-08-05T10:32:53.682Z,29.50
2022-08-05T10:34:08.112Z,30.40
2022-08-05T10:36:41.239Z,30.50
2022-08-05T10:39:24.208Z,29.60
2022-08-05T10:42:18.664Z,28.60
2022-08-05T10:45:01.693Z,29.40
2022-08-05T10:47:36.757Z,29.70
2022-08-05T10:50:33.081Z,29.60
2022-08-05T10:53:02.389Z,29.20
2022-08-05T10:55:38.473Z,28.80
2022-08-05T10:58:21.234Z,28.10
2022-08-05T11:00:55.396Z,28.60
2022-08-05T11:03:31.283Z,29.20
2022-08-05T11:06:15.266Z,29.50
2022-08-05T11:09:32.230Z,29.30
2022-08-05T11:12:50.548Z,29.30
2022-08-05T11:15:59.294Z,29.60
2022-08-05T11:18:29.976Z,30.70
2022-08-05T11:21:02.024Z,31.70
2022-08-05T11:24:03.948Z,32.20
2022-08-05T11:26:28.466Z,32.80
2022-08-05T11:29:11.384Z,32.70
2022-08-05T11:31:57.639Z,33.30
2022-08-05T11:34:51.932Z,34.20
2022-08-05T11:38:29.105Z,36.00
2022-08-05T11:41:35.041Z,36.90
2022-08-05T11:44:05.805Z,36.30
2022-08-05T11:47:10.109Z,34.00
2022-08-05T11:49:29.095Z,34.60
2022-08-05T11:52:11.060Z,35.50
2022-08-05T11:54:41.302Z,36.40
2022-08-05T11:57:25.230Z,36.40
2022-08-05T11:59:56.720Z,36.30
2022-08-05T12:02:33.055Z,36.10
2022-08-05T12:05:06.839Z,36.00
2022-08-05T12:08:07.567Z,37.20
2022-08-05T12:10:42.926Z,38.80
2022-08-05T12:13:18.532Z,40.70
2022-08-05T12:15:58.481Z,40.80
2022-08-05T12:18:34.227Z,39.20
2022-08-05T12:21:17.357Z,42.00
2022-08-05T12:23:55.456Z,42.20
2022-08-05T12:26:23.952Z,41.20
2022-08-05T12:28:52.316Z,41.90
2022-08-05T12:31:23.377Z,40.90
2022-08-05T12:34:03.141Z,41.90
2022-08-05T12:36:32.590Z,42.70
2022-08-05T12:39:01.155Z,44.40
2022-08-05T12:41:34.296Z,47.10
2022-08-05T12:44:06.772Z,48.90
2022-08-05T12:46:45.649Z,50.10
2022-08-05T12:49:16.119Z,50.20
2022-08-05T12:52:14.159Z,51.10
2022-08-05T12:54:38.468Z,53.20
2022-08-05T12:57:09.732Z,51.50
2022-08-05T13:01:58.134Z,50.00
2022-08-05T13:02:40.170Z,48.60
2022-08-05T13:05:12.580Z,48.00
2022-08-05T13:08:01.101Z,51.50
2022-08-05T13:10:33.910Z,50.70
2022-08-05T13:13:07.164Z,50.40
2022-08-05T13:15:49.240Z,50.80
2022-08-05T13:18:20.778Z,53.20
2022-08-05T13:20:50.330Z,53.20
2022-08-05T13:23:22.495Z,50.40
2022-08-05T13:25:59.171Z,50.00
2022-08-05T13:28:28.177Z,46.40
2022-08-05T13:30:57.129Z,42.40
2022-08-05T13:34:23.188Z,40.10
2022-08-05T13:36:14.996Z,40.20
2022-08-05T13:38:43.383Z,40.30
2022-08-05T13:41:11.949Z,39.40
2022-08-05T13:48:08.814Z,42.60
2022-08-05T13:50:36.599Z,40.70
2022-08-05T13:53:04.663Z,39.80
2022-08-05T13:55:40.706Z,37.20
2022-08-05T13:58:11.023Z,35.30
2022-08-05T14:00:39.205Z,34.40
2022-08-05T14:03:09.755Z,33.20
2022-08-05T14:06:24.780Z,33.40
2022-08-05T14:08:27.680Z,32.80
2022-08-05T14:11:08.142Z,32.80
2022-08-05T14:13:48.479Z,34.00
2022-08-05T14:16:19.109Z,33.30
2022-08-05T14:18:47.602Z,32.90
2022-08-05T14:22:08.852Z,32.70
2022-08-05T14:24:08.905Z,31.70
2022-08-05T14:26:51.349Z,33.10
2022-08-05T14:29:25.361Z,34.10
2022-08-05T14:31:54.460Z,33.10
2022-08-05T14:34:41.427Z,31.90
2022-08-05T14:37:13.339Z,31.70
2022-08-05T14:39:49.737Z,30.90
2022-08-05T14:42:20.780Z,30.80
2022-08-05T14:44:50.381Z,30.30
2022-08-05T14:47:58.520Z,29.90
2022-08-05T14:50:15.657Z,30.30
2022-08-05T14:52:57.728Z,30.50
2022-08-05T14:55:38.421Z,30.40
2022-08-05T14:58:11.390Z,30.80
2022-08-05T15:00:58.561Z,30.10
2022-08-05T15:03:33.395Z,28.90
2022-08-05T15:06:13.067Z,29.30
2022-08-05T15:09:01.562Z,29.40
2022-08-05T15:11:52.407Z,28.70
2022-08-05T15:14:34.704Z,29.00
2022-08-05T15:17:46.920Z,29.00
2022-08-05T15:19:58.392Z,29.00
2022-08-05T15:22:28.229Z,28.80
2022-08-05T15:24:59.431Z,29.30
2022-08-05T15:27:32.263Z,29.00
2022-08-05T15:30:06.541Z,28.70
2022-08-05T15:32:34.672Z,28.40
2022-08-05T15:35:12.324Z,28.40
2022-08-05T15:38:34.306Z,28.70
2022-08-05T15:41:00.431Z,28.70
2022-08-05T15:43:20.293Z,27.90
2022-08-05T15:46:00.694Z,27.80
2022-08-05T15:48:30.548Z,27.80
2022-08-05T15:51:03.549Z,27.30
2022-08-05T15:53:38.243Z,27.30
2022-08-05T15:56:20.570Z,27.70
2022-08-05T15:58:49.806Z,27.30
2022-08-05T16:01:20.013Z,27.50
2022-08-05T16:03:50.620Z,27.70
2022-08-05T16:10:23.156Z,27.60
2022-08-05T16:12:56.205Z,27.60
2022-08-05T16:15:24.789Z,27.60
2022-08-05T16:18:00.899Z,27.70
2022-08-05T16:20:32.622Z,27.20
2022-08-05T16:23:00.963Z,27.30
2022-08-05T16:25:34.085Z,27.80
2022-08-05T16:28:05.463Z,27.70
2022-08-05T16:30:36.116Z,27.70
2022-08-05T16:33:05.367Z,27.00
2022-08-05T16:35:41.978Z,26.80
2022-08-05T16:38:18.834Z,26.50
2022-08-05T16:40:59.859Z,26.30
2022-08-05T16:43:33.282Z,26.40
2022-08-05T16:46:23.461Z,26.20
2022-08-05T16:48:52.714Z,26.00
2022-08-05T16:51:21.037Z,25.90
2022-08-05T16:54:05.421Z,25.90
2022-08-05T16:56:41.606Z,26.00
2022-08-05T16:59:11.873Z,25.80
2022-08-05T17:01:54.084Z,25.80
2022-08-05T17:04:26.583Z,26.80
2022-08-05T17:06:56.990Z,27.80
2022-08-05T17:09:29.823Z,28.20
2022-08-05T17:11:59.852Z,28.50
2022-08-05T17:14:37.447Z,28.30
2022-08-05T17:17:14.386Z,27.50
2022-08-05T17:19:46.062Z,26.80
2022-08-05T17:22:24.381Z,26.10
2022-08-05T17:24:58.136Z,25.80
2022-08-05T17:27:34.315Z,25.10
2022-08-05T17:30:12.100Z,24.60
2022-08-05T17:32:47.355Z,25.00
2022-08-05T17:35:20.983Z,24.70
2022-08-05T17:37:49.473Z,24.20
2022-08-05T17:40:22.532Z,23.90
2022-08-05T17:42:52.902Z,23.70
2022-08-05T17:45:38.292Z,23.10
2022-08-05T17:48:08.700Z,23.20
2022-08-05T17:50:37.185Z,22.90
2022-08-05T17:53:08.488Z,22.90
2022-08-05T17:55:37.886Z,22.60
2022-08-05T17:58:12.461Z,22.20
2022-08-05T18:00:47.580Z,22.30
2022-08-05T18:03:56.417Z,21.90
2022-08-05T18:06:12.171Z,22.00
2022-08-05T18:08:45.750Z,22.50
2022-08-05T18:11:23.831Z,22.40
2022-08-05T18:13:54.689Z,22.60
2022-08-05T18:16:24.774Z,22.50
2022-08-05T18:18:52.866Z,22.30
2022-08-05T18:21:22.879Z,22.80
2022-08-05T18:23:54.727Z,22.70
2022-08-05T18:26:27.449Z,22.50
2022-08-05T18:28:56.410Z,22.50
2022-08-05T18:31:35.321Z,22.60
2022-08-05T18:34:05.929Z,22.50
2022-08-05T18:36:36.275Z,22.40
2022-08-05T18:39:09.683Z,22.60
2022-08-05T18:41:51.291Z,22.70
2022-08-05T18:44:34.961Z,22.50
2022-08-05T18:47:16.969Z,22.10
2022-08-05T18:50:02.433Z,22.20
2022-08-05T18:52:35.584Z,22.20
2022-08-05T18:55:10.548Z,22.40
2022-08-05T18:57:50.340Z,22.30
2022-08-05T19:00:28.746Z,22.00
2022-08-05T19:03:03.599Z,21.60
2022-08-05T19:06:12.566Z,22.10
2022-08-05T19:08:30.542Z,22.00
2022-08-05T19:11:04.754Z,21.50
2022-08-05T19:13:36.726Z,21.50
2022-08-05T19:16:24.360Z,21.60
2022-08-05T19:18:57.719Z,21.40
2022-08-05T19:21:34.377Z,21.20
2022-08-05T19:24:08.908Z,21.20
2022-08-05T19:26:43.842Z,21.30
2022-08-05T19:29:26.528Z,21.30
2022-08-05T19:32:04.409Z,21.30
2022-08-05T19:34:34.384Z,21.50
2022-08-05T19:37:02.705Z,21.40
2022-08-05T19:39:32.031Z,21.00
2022-08-05T19:42:15.358Z,21.50
2022-08-05T19:44:45.107Z,21.00
2022-08-05T19:47:16.424Z,21.10
2022-08-05T19:49:48.109Z,21.10
2022-08-05T19:52:40.357Z,21.00
2022-08-05T19:55:06.952Z,21.20
2022-08-05T19:58:07.044Z,21.10
2022-08-05T20:00:42.693Z,21.30
2022-08-05T20:03:11.128Z,21.10
2022-08-05T20:05:43.152Z,21.10
2022-08-05T20:08:11.876Z,21.20
2022-08-05T20:10:40.026Z,21.20
2022-08-05T20:13:12.120Z,21.30
2022-08-05T20:15:52.187Z,21.30
2022-08-05T20:18:33.156Z,21.00
2022-08-05T20:21:06.664Z,20.60
2022-08-05T20:23:40.551Z,20.90
2022-08-05T20:26:20.774Z,20.90
2022-08-05T20:28:51.496Z,20.90
2022-08-05T20:31:28.769Z,20.80
2022-08-05T20:34:10.529Z,20.50
2022-08-05T20:36:43.562Z,20.90
2022-08-05T20:39:13.227Z,20.70
2022-08-05T20:41:43.870Z,20.40
2022-08-05T20:44:18.616Z,20.70
2022-08-05T20:46:58.080Z,20.40
2022-08-05T20:49:26.429Z,20.30
2022-08-05T20:51:57.924Z,20.10
2022-08-05T20:54:42.643Z,20.50
2022-08-05T20:57:14.383Z,20.00
2022-08-05T21:00:10.351Z,20.20
